Grand Rapids, MI (49514)

8:30 PM EDT on October 01, 2014 (GMT -0400)
WXGR.NET | Change Station
CLOSE
Current Station
Personal Weather Station
Location: Grand Rapids, MI
Elevation: 756 ft
Nearby Weather Stations

Elev 756 ft 42.96 °N, 85.63 °W | Updated 4 seconds ago

Partly Cloudy
Partly Cloudy
55.6 °F
Feels Like 55.6 °F
N
0.0
Wind Variable Wind from WNW
Gusts 0.0 mph

Today
High -- | Low -- °F
--% Chance of Precip.
Yesterday
High -- | Low -- °F
Precip. -- in
7:39 AM 7:23 PM
First Quarter, 52% visible
Pressure 30.02 in
Visibility 10.0 miles
Clouds Overcast 2400 ft
Dew Point 44 °F
Humidity 64%
Rainfall 0.00 in
Snow Depth Not available.
UV 0 out of 12
Pollen 2.60 out of 12
Ozone Good
PM2.5 Good
Flu Activity Not available.
METAR KGRR 302353Z 02006KT 10SM OVC024 13/09 A3001 RMK AO2 SLP166 T01280094 10150 20128 53003

More Conditions Fewer Conditions

Pressure 30.02 in
Visibility 10.0 miles
Clouds Overcast 2400 ft
Dew Point 44 °F
Humidity 64%
Rainfall 0.00 in
Snow Depth Not available.
UV 0 out of 12
Pollen 2.60 out of 12
Ozone Good
PM2.5 Good
Flu Activity Not available.
METAR KGRR 302353Z 02006KT 10SM OVC024 13/09 A3001 RMK AO2 SLP166 T01280094 10150 20128 53003

More Conditions Fewer Conditions

10-Day Weather Forecast

Almanac

Astronomy

Oct. 01, 2014 Rise Set
Actual Time 7:39 AM EDT 7:23 PM EDT
Civil Twilight 7:11 AM EDT 7:52 PM EDT
Nautical Twilight 6:38 AM EDT 8:24 PM EDT
Astronomical Twilight 6:05 AM EDT 8:58 PM EDT
Moon 2:46 PM EDT (10/1) No Moon Set
Length of Visible Light 12h 40m
Length of Day
11h 43m
Tomorrow will be 2m 54s shorter.
First Quarter, 52% of the Moon is Illuminated
Today
First Quarter
Oct 8
Full
Oct 15
Last Quarter
Oct 23
New
Oct 30
First Quarter

Today's Extremes

State Highs State Lows

Community

WunderPhotos

Upload Photos

1,758,097 photos uploaded!

WunderBlogs® & News

Nearby

Air Quality

  Air Quality AQ Index Pollutant
Yesterday Good
PM2.5
Yesterday Good
OZONE
Current Good
PM2.5
Current Good
OZONE
Wednesday Good
OZONE
Wednesday Good
PM2.5
Thursday Good
OZONE
Thursday Good
PM2.5
Friday Good
OZONE
Friday Good
PM2.5
Saturday Good
OZONE
Saturday Good
PM2.5

Snow Depth

Station Depth Elevation
No new snow has been reported.

Earthquake Activity

City Distance Mag. Time & Date
No recent earthquake activity has been reported nearby.
Minimum magnitude displayed is 2.5.

Coastal Water Temperatures

Place Temperature
Holland, MI 61.0 °F

Nearby Weather Stations